Time;durP1;ratioP1;P1;durP2;ratioP2;P2;SDS_P1;SDS_P2;PMS_P1;PMS_P2;Temp;Humidity;BMP_temperature;BMP_pressure;BME280_temperature;BME280_humidity;BME280_pressure;Samples;Min_cycle;Max_cycle;Signal;HPM_P1;HPM_P2
2021/04/30 00:02:03;;;;;;;11.45;8.73;;;;;;;5.32;96.88;97589.92;3611707;80;43467;-21
2021/04/30 00:07:10;;;;;;;12.40;9.47;;;;;;;5.24;96.87;97588.81;3608442;81;75333;-21
2021/04/30 00:12:15;;;;;;;11.15;8.98;;;;;;;5.16;97.49;97586.56;3609802;80;44067;-23
2021/04/30 00:17:22;;;;;;;14.78;10.60;;;;;;;5.14;98.97;97579.19;3608222;80;43437;-21
2021/04/30 00:22:28;;;;;;;16.03;10.60;;;;;;;5.13;98.80;97588.19;3610953;80;44020;-21
2021/04/30 00:27:34;;;;;;;12.20;9.57;;;;;;;5.13;98.46;97594.34;3608788;81;43701;-21
2021/04/30 00:32:40;;;;;;;14.33;10.10;;;;;;;4.99;100.00;97604.20;3609155;80;43999;-21
2021/04/30 00:37:46;;;;;;;14.80;9.60;;;;;;;4.74;100.00;97611.85;3606483;82;44455;-19
2021/04/30 00:42:55;;;;;;;14.30;10.27;;;;;;;4.84;100.00;97611.33;3613556;80;43690;-19
2021/04/30 00:48:00;;;;;;;13.40;9.98;;;;;;;4.86;100.00;97617.37;3554780;82;43999;-22
2021/04/30 00:53:07;;;;;;;14.68;10.70;;;;;;;4.87;100.00;97623.05;3606642;80;44110;-20
2021/04/30 00:58:14;;;;;;;17.40;10.77;;;;;;;4.95;100.00;97623.64;3553272;82;77833;-20
2021/04/30 01:03:19;;;;;;;14.83;10.53;;;;;;;4.97;100.00;97631.52;3569770;82;44472;-21
2021/04/30 01:08:25;;;;;;;15.73;11.47;;;;;;;4.98;100.00;97641.22;3538393;82;43030;-21
2021/04/30 01:13:31;;;;;;;15.57;10.67;;;;;;;5.02;100.00;97641.25;3540706;81;44158;-21
2021/04/30 01:18:44;;;;;;;14.53;10.50;;;;;;;5.00;100.00;97639.25;3493074;83;43708;-21
2021/04/30 01:23:52;;;;;;;14.67;10.90;;;;;;;4.96;100.00;97639.17;3542863;82;42978;-21
2021/04/30 01:28:58;;;;;;;16.62;11.48;;;;;;;4.93;100.00;97645.15;3560209;82;44075;-20
2021/04/30 01:34:04;;;;;;;17.07;11.70;;;;;;;4.89;100.00;97649.59;3556117;82;44013;-20
2021/04/30 01:39:12;;;;;;;17.20;11.63;;;;;;;4.99;100.00;97646.91;3516873;82;43684;-21
2021/04/30 01:44:18;;;;;;;15.93;11.20;;;;;;;5.02;100.00;97650.12;3555361;82;77408;-20
2021/04/30 01:49:25;;;;;;;16.65;11.70;;;;;;;5.07;100.00;97655.84;3552051;82;43990;-20
2021/04/30 01:54:30;;;;;;;16.57;11.87;;;;;;;5.04;100.00;97660.16;3551729;82;43266;-21
2021/04/30 01:59:36;;;;;;;18.30;12.57;;;;;;;5.01;100.00;97664.92;3558706;82;43341;-21
2021/04/30 02:04:42;;;;;;;18.67;12.53;;;;;;;4.94;100.00;97657.52;3607132;80;43412;-21
2021/04/30 02:09:48;;;;;;;17.57;12.33;;;;;;;4.87;100.00;97660.42;3623893;80;43975;-23
2021/04/30 02:14:54;;;;;;;17.37;12.07;;;;;;;4.82;100.00;97662.66;3626604;80;77769;-21
2021/04/30 02:20:00;;;;;;;17.27;12.47;;;;;;;4.90;100.00;97660.11;3618557;79;43432;-21
2021/04/30 02:25:10;;;;;;;17.80;12.43;;;;;;;4.97;100.00;97656.88;3555245;81;43371;-21
2021/04/30 02:30:19;;;;;;;17.57;12.28;;;;;;;4.90;100.00;97665.95;3629684;80;43344;-21
2021/04/30 02:35:28;;;;;;;16.02;12.28;;;;;;;4.83;100.00;97661.68;3612770;80;43718;-21
2021/04/30 02:40:35;;;;;;;18.90;12.20;;;;;;;4.91;100.00;97664.47;3616793;80;44561;-21
2021/04/30 02:45:41;;;;;;;18.37;12.37;;;;;;;4.98;100.00;97671.91;3630284;80;43372;-21
2021/04/30 02:50:46;;;;;;;18.87;12.60;;;;;;;4.89;100.00;97662.42;3623492;80;42923;-22
2021/04/30 02:55:52;;;;;;;17.27;12.47;;;;;;;4.81;100.00;97663.65;3615302;80;43685;-21
2021/04/30 03:00:59;;;;;;;17.85;12.63;;;;;;;4.75;100.00;97665.06;3614356;80;44071;-21
2021/04/30 03:06:06;;;;;;;18.23;12.47;;;;;;;4.72;100.00;97672.02;3548424;82;43451;-21
2021/04/30 03:11:12;;;;;;;18.45;12.95;;;;;;;4.69;100.00;97670.13;3538769;82;44022;-21
2021/04/30 03:16:17;;;;;;;19.03;12.83;;;;;;;4.63;100.00;97672.40;3549988;81;77398;-21
2021/04/30 03:21:23;;;;;;;20.23;14.13;;;;;;;4.53;100.00;97672.87;3571391;82;44095;-21
2021/04/30 03:26:29;;;;;;;21.70;14.63;;;;;;;4.43;100.00;97673.37;3565401;82;44069;-21
2021/04/30 03:31:35;;;;;;;19.40;13.63;;;;;;;4.52;100.00;97667.69;3554858;82;44031;-21
2021/04/30 03:36:42;;;;;;;19.80;13.38;;;;;;;4.64;100.00;97678.56;3562457;82;44070;-21
2021/04/30 03:41:48;;;;;;;18.17;12.80;;;;;;;4.73;100.00;97680.37;3553339;82;44049;-21
2021/04/30 03:46:54;;;;;;;19.12;12.60;;;;;;;4.78;100.00;97690.61;3578903;82;43712;-21
2021/04/30 03:52:00;;;;;;;16.75;11.88;;;;;;;4.64;100.00;97694.56;3564659;81;44040;-21
2021/04/30 03:57:07;;;;;;;16.73;11.70;;;;;;;4.58;100.00;97703.15;3518636;82;44049;-21
2021/04/30 04:02:13;;;;;;;16.93;12.00;;;;;;;4.57;100.00;97699.63;3563585;82;44097;-21
2021/04/30 04:07:19;;;;;;;15.83;11.73;;;;;;;4.60;100.00;97691.82;3627111;80;43362;-21
2021/04/30 04:12:24;;;;;;;19.23;11.50;;;;;;;4.59;100.00;97709.67;3628725;80;44016;-21
2021/04/30 04:17:30;;;;;;;15.90;11.57;;;;;;;4.57;100.00;97706.80;3635015;80;43392;-21
2021/04/30 04:22:36;;;;;;;16.27;11.25;;;;;;;4.57;100.00;97704.96;3631573;80;44046;-21
2021/04/30 04:27:42;;;;;;;16.80;11.90;;;;;;;4.62;100.00;97709.39;3611128;80;77976;-21
2021/04/30 04:32:48;;;;;;;17.27;12.93;;;;;;;4.65;100.00;97718.94;3618868;80;44104;-21
2021/04/30 04:37:54;;;;;;;18.07;12.37;;;;;;;4.77;100.00;97730.28;3557515;81;43388;-21
2021/04/30 04:43:01;;;;;;;16.50;11.87;;;;;;;4.83;100.00;97732.41;3636951;80;77413;-21
2021/04/30 04:48:07;;;;;;;21.53;12.57;;;;;;;4.95;100.00;97741.09;3647538;80;43706;-21
2021/04/30 04:53:13;;;;;;;16.70;12.53;;;;;;;5.02;100.00;97736.02;3643828;80;43346;-21
2021/04/30 04:58:20;;;;;;;17.82;12.25;;;;;;;5.07;100.00;97749.80;3646727;80;43329;-21
2021/04/30 05:03:26;;;;;;;16.30;12.37;;;;;;;5.13;100.00;97754.55;3561956;81;43944;-20
2021/04/30 05:08:32;;;;;;;16.75;12.10;;;;;;;5.12;100.00;97760.87;3632964;79;44111;-20
2021/04/30 05:13:38;;;;;;;18.37;13.00;;;;;;;5.14;100.00;97766.92;3642785;79;44833;-20
2021/04/30 05:18:45;;;;;;;18.43;13.20;;;;;;;5.15;100.00;97777.95;3636765;80;43455;-20
2021/04/30 05:23:51;;;;;;;18.27;12.80;;;;;;;5.21;100.00;97785.41;3643425;79;43443;-20
2021/04/30 05:28:59;;;;;;;18.80;12.87;;;;;;;5.28;100.00;97784.81;3640764;80;43689;-20
2021/04/30 05:34:05;;;;;;;18.00;12.87;;;;;;;5.31;100.00;97784.54;3652670;79;43427;-22
2021/04/30 05:39:11;;;;;;;19.27;12.68;;;;;;;5.33;100.00;97787.91;3640744;79;44379;-20
2021/04/30 05:44:17;;;;;;;18.90;12.65;;;;;;;5.38;100.00;97791.84;3640039;79;44042;-20
2021/04/30 05:49:24;;;;;;;18.70;13.30;;;;;;;5.58;100.00;97796.30;3645854;80;43231;-20
2021/04/30 05:54:31;;;;;;;20.77;12.95;;;;;;;5.71;100.00;97789.63;3647414;79;44090;-21
2021/04/30 05:59:37;;;;;;;18.75;13.68;;;;;;;5.91;100.00;97788.72;3568137;81;44103;-21
2021/04/30 06:04:43;;;;;;;17.40;12.55;;;;;;;6.04;100.00;97790.59;3632594;79;44078;-21
2021/04/30 06:09:49;;;;;;;17.67;13.23;;;;;;;6.05;100.00;97801.64;3623425;80;44125;-21
2021/04/30 06:14:55;;;;;;;16.62;12.98;;;;;;;6.09;100.00;97803.01;3552412;81;43718;-21
2021/04/30 06:20:01;;;;;;;17.55;12.82;;;;;;;6.17;100.00;97812.45;3574067;81;44110;-21
2021/04/30 06:25:08;;;;;;;17.60;13.43;;;;;;;6.31;100.00;97815.63;3609492;80;43297;-21
2021/04/30 06:30:16;;;;;;;16.40;12.63;;;;;;;6.32;100.00;97828.02;3622243;80;43827;-21
2021/04/30 06:35:22;;;;;;;17.48;12.37;;;;;;;6.31;100.00;97836.55;3606075;80;44446;-21
2021/04/30 06:40:28;;;;;;;17.52;13.32;;;;;;;6.34;100.00;97836.74;3610911;80;43804;-21
2021/04/30 06:45:34;;;;;;;18.05;13.10;;;;;;;6.31;100.00;97841.05;3614693;80;43726;-21
2021/04/30 06:50:40;;;;;;;18.25;13.50;;;;;;;6.28;100.00;97848.05;3616744;80;44541;-20
2021/04/30 06:55:46;;;;;;;17.10;12.98;;;;;;;6.36;100.00;97854.83;3631401;79;44573;-21
2021/04/30 07:00:52;;;;;;;17.60;12.82;;;;;;;6.36;100.00;97860.66;3620150;80;43715;-22
2021/04/30 07:05:58;;;;;;;17.98;12.98;;;;;;;6.41;100.00;97864.58;3618785;80;44616;-22
2021/04/30 07:11:06;;;;;;;18.85;12.63;;;;;;;6.40;100.00;97870.09;3619380;79;43285;-21
2021/04/30 07:16:13;;;;;;;18.57;13.28;;;;;;;6.45;100.00;97858.45;3615285;79;44225;-21
2021/04/30 07:21:19;;;;;;;18.37;13.25;;;;;;;6.57;100.00;97860.42;3605323;80;44090;-21
2021/04/30 07:26:25;;;;;;;19.15;13.75;;;;;;;6.71;100.00;97860.39;3621592;80;42971;-22
2021/04/30 07:31:34;;;;;;;18.12;13.58;;;;;;;6.81;100.00;97857.19;3620472;80;43270;-22
2021/04/30 07:36:41;;;;;;;18.25;13.32;;;;;;;6.89;100.00;97859.94;3619031;80;43890;-20
2021/04/30 07:41:47;;;;;;;19.42;13.68;;;;;;;7.06;100.00;97854.72;3620580;80;44154;-21
2021/04/30 07:46:55;;;;;;;22.30;13.70;;;;;;;7.16;100.00;97851.98;3629404;79;44444;-22
2021/04/30 07:52:01;;;;;;;18.52;13.55;;;;;;;7.32;100.00;97856.16;3629547;80;44693;-22
2021/04/30 07:57:09;;;;;;;19.55;14.40;;;;;;;7.36;100.00;97856.17;3622319;80;44068;-20
2021/04/30 08:02:15;;;;;;;19.70;14.03;;;;;;;7.63;100.00;97862.41;3688009;79;94399;-20
2021/04/30 08:07:21;;;;;;;21.02;14.90;;;;;;;7.58;100.00;97864.73;3669076;79;43242;-21
2021/04/30 08:12:27;;;;;;;17.55;13.83;;;;;;;7.65;100.00;97879.67;3659545;79;43673;-22
2021/04/30 08:17:33;;;;;;;21.87;14.47;;;;;;;7.74;100.00;97882.78;3671125;79;43456;-21
2021/04/30 08:22:39;;;;;;;21.82;15.35;;;;;;;7.86;100.00;97884.69;3657229;79;44142;-21
2021/04/30 08:27:45;;;;;;;21.52;14.90;;;;;;;8.12;100.00;97886.53;3653754;79;43254;-21
2021/04/30 08:32:51;;;;;;;22.32;15.30;;;;;;;8.16;100.00;97876.66;3656685;79;44521;-22
2021/04/30 08:37:56;;;;;;;20.00;14.90;;;;;;;8.14;99.85;97887.22;3658121;80;44103;-21
2021/04/30 08:43:02;;;;;;;20.30;15.05;;;;;;;8.27;99.91;97888.98;3652073;79;44431;-21
2021/04/30 08:48:11;;;;;;;21.33;15.63;;;;;;;8.25;100.00;97880.23;3652193;80;43986;-21
2021/04/30 08:53:17;;;;;;;21.60;15.63;;;;;;;8.39;100.00;97868.56;3650890;80;44127;-21
2021/04/30 08:58:25;;;;;;;20.20;14.85;;;;;;;8.46;99.67;97870.93;3656429;79;44703;-21
2021/04/30 09:03:32;;;;;;;18.90;14.18;;;;;;;9.02;99.13;97870.45;3644432;80;43326;-21
2021/04/30 09:08:49;;;;;;;21.48;15.13;;;;;;;9.02;96.79;97866.42;3630788;80;43404;-21
2021/04/30 09:14:16;;;;;;;16.93;12.65;;;;;;;9.03;95.55;97852.84;3622433;80;44079;-22
2021/04/30 09:19:30;;;;;;;22.60;13.93;;;;;;;9.34;96.77;97865.63;3624691;82;43694;-21
2021/04/30 09:24:37;;;;;;;18.20;13.22;;;;;;;9.42;94.70;97867.48;3574232;82;43152;-21
2021/04/30 09:29:43;;;;;;;18.48;13.53;;;;;;;9.44;93.03;97872.20;3626286;80;43767;-21
2021/04/30 09:34:52;;;;;;;19.55;13.68;;;;;;;9.47;92.08;97877.22;3623142;80;44442;-21
2021/04/30 09:40:00;;;;;;;18.67;13.03;;;;;;;9.55;93.82;97877.73;3623340;82;42908;-21
2021/04/30 09:45:08;;;;;;;24.95;13.62;;;;;;;9.73;92.43;97873.52;3620976;80;44058;-22
2021/04/30 09:50:29;;;;;;;17.02;12.80;;;;;;;9.78;92.92;97871.17;3625673;81;44710;-21
2021/04/30 09:55:45;;;;;;;17.10;13.53;;;;;;;9.95;91.79;97871.98;3610137;81;26986;-22
2021/04/30 10:00:53;;;;;;;18.52;13.70;;;;;;;10.11;89.59;97878.36;3628023;80;43288;-21
2021/04/30 10:06:13;;;;;;;18.45;13.90;;;;;;;10.28;89.89;97877.81;3625858;80;44061;-22
2021/04/30 10:11:31;;;;;;;18.57;13.22;;;;;;;10.39;90.00;97862.66;3669303;79;44893;-22
2021/04/30 10:16:38;;;;;;;13.65;11.50;;;;;;;10.70;86.32;97872.62;3666182;81;43357;-22
2021/04/30 10:21:46;;;;;;;16.40;12.65;;;;;;;10.81;85.39;97869.19;3669747;79;44158;-22
2021/04/30 10:26:56;;;;;;;13.55;10.45;;;;;;;11.08;85.65;97870.55;3686845;79;43000;-22
2021/04/30 10:32:02;;;;;;;14.63;11.55;;;;;;;10.86;83.03;97873.56;3669627;79;43689;-22
2021/04/30 10:37:09;;;;;;;13.93;10.90;;;;;;;10.76;81.63;97871.89;3613268;81;44430;-22
2021/04/30 10:42:21;;;;;;;14.20;11.73;;;;;;;10.72;81.50;97875.98;3668698;79;44766;-22
2021/04/30 10:47:27;;;;;;;14.35;11.38;;;;;;;10.61;84.49;97875.84;3674933;79;43287;-22
2021/04/30 10:52:33;;;;;;;13.40;10.70;;;;;;;10.60;85.71;97891.67;3670893;79;44072;-22
2021/04/30 10:57:51;;;;;;;12.10;10.43;;;;;;;10.52;80.27;97894.41;3673718;79;44067;-22
2021/04/30 11:03:17;;;;;;;13.70;11.28;;;;;;;10.70;82.34;97893.34;3677914;79;43684;-22
2021/04/30 11:08:42;;;;;;;11.90;9.45;;;;;;;10.88;80.90;97880.94;3674031;79;43416;-22
2021/04/30 11:14:24;;;;;;;14.45;11.22;;;;;;;10.72;74.73;97877.33;3682796;79;43493;-21
2021/04/30 11:19:32;;;;;;;10.60;8.48;;;;;;;11.08;79.79;97874.09;3676173;79;43689;-21
2021/04/30 11:24:41;;;;;;;14.98;10.32;;;;;;;11.03;79.35;97878.34;3687504;78;44021;-22
2021/04/30 11:29:47;;;;;;;9.95;8.35;;;;;;;11.40;80.28;97860.05;3677382;79;43138;-21
2021/04/30 11:34:54;;;;;;;11.83;9.73;;;;;;;11.51;78.49;97857.94;3680228;79;43500;-22
2021/04/30 11:40:00;;;;;;;12.78;10.38;;;;;;;11.34;81.26;97861.27;3670916;79;44045;-22
2021/04/30 11:45:09;;;;;;;18.27;9.00;;;;;;;11.26;81.06;97858.13;3682361;79;44043;-22
2021/04/30 11:50:18;;;;;;;10.13;8.00;;;;;;;10.92;80.20;97860.22;3632061;81;44182;-23
2021/04/30 11:55:25;;;;;;;11.93;8.98;;;;;;;10.97;79.38;97850.73;3670272;79;44429;-24
2021/04/30 12:00:32;;;;;;;12.03;8.98;;;;;;;10.97;81.01;97850.25;3603472;81;43491;-21
2021/04/30 12:05:39;;;;;;;12.30;9.75;;;;;;;11.07;80.67;97851.34;3681786;79;44187;-22
2021/04/30 12:10:45;;;;;;;12.43;9.85;;;;;;;11.08;79.50;97871.89;3632693;80;44574;-22
2021/04/30 12:15:52;;;;;;;10.78;8.53;;;;;;;10.83;82.95;97888.72;3622702;82;44113;-22
2021/04/30 12:20:58;;;;;;;29.48;9.18;;;;;;;10.94;81.07;97885.11;3581769;82;44025;-22
2021/04/30 12:26:05;;;;;;;12.58;9.38;;;;;;;10.93;79.21;97883.95;3622005;82;44723;-22
2021/04/30 12:31:13;;;;;;;11.63;9.08;;;;;;;10.66;81.30;97884.75;3626089;81;44178;-22
2021/04/30 12:36:22;;;;;;;50.23;11.75;;;;;;;10.81;82.27;97875.44;3625645;80;43679;-22
2021/04/30 12:41:30;;;;;;;13.40;9.93;;;;;;;10.76;82.53;97889.93;3579972;82;43503;-19
2021/04/30 12:46:37;;;;;;;12.58;10.15;;;;;;;10.92;83.70;97880.92;3628480;81;43325;-19
2021/04/30 12:51:45;;;;;;;18.57;10.43;;;;;;;10.84;82.88;97883.14;3581408;81;44430;-21
2021/04/30 12:56:55;;;;;;;12.58;9.93;;;;;;;10.93;81.95;97869.98;3621855;82;43374;-22
2021/04/30 13:02:10;;;;;;;15.50;12.23;;;;;;;11.07;82.05;97852.20;3626266;80;43927;-21
2021/04/30 13:07:19;;;;;;;15.48;11.20;;;;;;;11.13;81.06;97861.43;3625707;81;44091;-22
2021/04/30 13:12:28;;;;;;;15.48;11.93;;;;;;;11.53;80.94;97862.13;3625819;81;44409;-22
2021/04/30 13:17:35;;;;;;;16.15;12.40;;;;;;;11.46;77.90;97850.39;3593296;82;43305;-23
2021/04/30 13:22:43;;;;;;;15.70;12.15;;;;;;;11.61;80.75;97850.43;3626970;82;44103;-22
2021/04/30 13:27:50;;;;;;;16.12;11.48;;;;;;;11.38;80.51;97841.03;3625944;81;44176;-22
2021/04/30 13:33:05;;;;;;;15.68;11.97;;;;;;;11.43;76.68;97856.14;3625288;81;43559;-22
2021/04/30 13:38:11;;;;;;;17.67;12.63;;;;;;;11.46;80.35;97856.31;3626678;81;44064;-22
2021/04/30 13:43:30;;;;;;;18.05;12.82;;;;;;;11.39;84.46;97852.16;3622318;82;43333;-22
2021/04/30 13:48:39;;;;;;;16.60;12.75;;;;;;;11.45;79.58;97855.98;3620317;80;43335;-22
2021/04/30 13:53:45;;;;;;;14.18;11.55;;;;;;;11.40;81.00;97851.95;3624471;80;43405;-22
2021/04/30 13:58:52;;;;;;;15.88;12.03;;;;;;;11.37;80.71;97860.40;3626535;82;43688;-22
2021/04/30 14:03:58;;;;;;;13.75;11.43;;;;;;;11.45;83.05;97860.03;3624634;82;44396;-21
2021/04/30 14:09:05;;;;;;;16.42;12.15;;;;;;;11.61;81.57;97861.22;3626022;80;44116;-21
2021/04/30 14:14:11;;;;;;;16.25;12.37;;;;;;;11.69;81.48;97857.13;3618245;82;44082;-21
2021/04/30 14:19:18;;;;;;;14.53;11.85;;;;;;;11.25;83.71;97854.61;3625870;80;43440;-21
2021/04/30 14:24:24;;;;;;;15.65;11.95;;;;;;;11.39;83.36;97849.45;3627099;80;44750;-22
2021/04/30 14:29:29;;;;;;;14.00;11.20;;;;;;;11.36;83.40;97847.94;3629995;81;44094;-22
2021/04/30 14:34:36;;;;;;;16.27;12.25;;;;;;;11.38;83.82;97853.98;3625058;82;43345;-23
2021/04/30 14:39:43;;;;;;;13.10;10.82;;;;;;;11.01;84.04;97855.59;3629280;80;44000;-23
2021/04/30 14:44:50;;;;;;;17.00;13.08;;;;;;;11.04;83.92;97843.11;3576664;80;44099;-22
2021/04/30 14:49:56;;;;;;;14.25;12.25;;;;;;;10.94;86.03;97831.73;3634987;80;44096;-22
2021/04/30 14:55:02;;;;;;;18.05;13.95;;;;;;;10.93;84.01;97842.17;3630272;80;43639;-22
2021/04/30 15:00:16;;;;;;;14.65;11.83;;;;;;;10.90;87.45;97838.48;3635449;80;44084;-23
2021/04/30 15:05:22;;;;;;;14.03;11.08;;;;;;;10.83;89.43;97844.27;3629513;80;43439;-22
2021/04/30 15:10:28;;;;;;;14.65;11.68;;;;;;;10.88;89.19;97848.11;3650364;79;44097;-23
2021/04/30 15:15:34;;;;;;;15.10;11.95;;;;;;;10.82;89.56;97856.05;3679528;78;44049;-23
2021/04/30 15:20:41;;;;;;;22.90;19.40;;;;;;;10.65;90.06;97849.39;3681420;79;44023;-23
2021/04/30 15:25:47;;;;;;;19.82;15.60;;;;;;;10.61;92.14;97855.64;3686313;79;44109;-22
2021/04/30 15:30:53;;;;;;;27.42;20.88;;;;;;;10.58;93.43;97861.41;3695176;79;43394;-23
2021/04/30 15:36:00;;;;;;;15.40;11.70;;;;;;;10.51;92.63;97870.36;3683805;79;43445;-22
2021/04/30 15:41:06;;;;;;;17.02;12.78;;;;;;;10.37;94.49;97871.38;3667124;79;43442;-22
2021/04/30 15:46:13;;;;;;;14.63;11.45;;;;;;;10.35;95.69;97870.70;3688447;79;44139;-22
2021/04/30 15:51:19;;;;;;;13.90;11.28;;;;;;;10.25;95.37;97880.84;3674014;79;44040;-22
2021/04/30 15:56:26;;;;;;;14.70;11.80;;;;;;;10.19;96.33;97871.59;3658740;79;43314;-22
2021/04/30 16:01:32;;;;;;;14.20;11.10;;;;;;;10.14;97.60;97876.16;3663068;79;44138;-22
2021/04/30 16:06:39;;;;;;;15.88;12.37;;;;;;;10.03;99.12;97870.62;3667534;79;43334;-22
2021/04/30 16:11:45;;;;;;;22.13;17.50;;;;;;;10.02;100.00;97872.14;3672567;79;43592;-22
2021/04/30 16:16:51;;;;;;;15.78;11.43;;;;;;;9.98;100.00;97865.41;3678751;79;43301;-22
2021/04/30 16:21:59;;;;;;;17.77;14.50;;;;;;;9.87;100.00;97866.63;3671401;79;43491;-22
2021/04/30 16:27:05;;;;;;;19.42;14.80;;;;;;;9.84;100.00;97875.86;3670224;79;43358;-22
2021/04/30 16:32:12;;;;;;;14.65;11.48;;;;;;;9.85;100.00;97881.58;3669949;79;44014;-22
2021/04/30 16:37:19;;;;;;;19.98;15.70;;;;;;;9.82;100.00;97887.80;3681239;79;44069;-22
2021/04/30 16:42:25;;;;;;;15.68;11.28;;;;;;;9.84;100.00;97892.52;3663359;79;43990;-23
2021/04/30 16:47:31;;;;;;;14.35;10.80;;;;;;;9.73;100.00;97894.20;3671293;78;44087;-23
2021/04/30 16:52:37;;;;;;;13.45;10.15;;;;;;;9.67;100.00;97892.52;3677932;79;43426;-23
2021/04/30 16:57:46;;;;;;;14.05;10.75;;;;;;;9.53;100.00;97882.42;3685669;79;44141;-22
2021/04/30 17:02:52;;;;;;;13.70;10.20;;;;;;;9.41;100.00;97863.11;3679271;78;44030;-22
2021/04/30 17:07:59;;;;;;;15.90;11.10;;;;;;;9.38;100.00;97855.38;3680496;79;44030;-22
2021/04/30 17:13:05;;;;;;;13.45;10.63;;;;;;;9.28;100.00;97870.34;3711158;79;44090;-22
2021/04/30 17:18:11;;;;;;;14.90;11.08;;;;;;;9.23;100.00;97879.39;3719632;79;43726;-23
2021/04/30 17:23:20;;;;;;;14.50;11.15;;;;;;;9.14;100.00;97865.10;3716318;79;43014;-23
2021/04/30 17:28:28;;;;;;;15.13;11.28;;;;;;;8.98;100.00;97855.69;3714022;79;42947;-22
2021/04/30 17:33:34;;;;;;;14.85;11.00;;;;;;;8.92;100.00;97862.05;3707832;79;43346;-21
2021/04/30 17:38:40;;;;;;;14.73;10.53;;;;;;;8.88;100.00;97863.37;3712995;79;43716;-22
2021/04/30 17:43:46;;;;;;;13.38;10.08;;;;;;;8.78;100.00;97869.39;3705048;77;44101;-22
2021/04/30 17:48:53;;;;;;;13.83;10.45;;;;;;;8.79;100.00;97860.33;3702875;79;77348;-22
2021/04/30 17:53:59;;;;;;;13.30;10.03;;;;;;;8.78;100.00;97874.27;3686129;79;44058;-22
2021/04/30 17:59:05;;;;;;;14.35;10.95;;;;;;;8.76;100.00;97875.45;3702682;77;77448;-21
2021/04/30 18:04:11;;;;;;;14.80;10.45;;;;;;;8.73;100.00;97894.05;3700427;79;43360;-21
2021/04/30 18:09:17;;;;;;;13.90;9.85;;;;;;;8.67;100.00;97880.43;3727982;79;43340;-21
2021/04/30 18:14:25;;;;;;;13.28;10.08;;;;;;;8.58;100.00;97858.11;3701302;79;26452;-22
2021/04/30 18:19:32;;;;;;;16.20;12.63;;;;;;;8.53;100.00;97852.37;3734243;79;44595;-20
2021/04/30 18:24:39;;;;;;;16.15;12.00;;;;;;;8.48;100.00;97864.94;3729149;79;44189;-21
2021/04/30 18:29:45;;;;;;;13.88;10.75;;;;;;;8.42;100.00;97863.71;3715572;79;44523;-20
2021/04/30 18:34:51;;;;;;;17.42;13.48;;;;;;;8.39;100.00;97867.22;3734483;77;43731;-22
2021/04/30 18:39:59;;;;;;;14.33;10.40;;;;;;;8.34;100.00;97863.68;3711529;79;44221;-20
2021/04/30 18:45:08;;;;;;;14.95;11.08;;;;;;;8.30;100.00;97863.14;3732892;79;43417;-22
2021/04/30 18:50:15;;;;;;;16.55;11.93;;;;;;;8.22;100.00;97885.91;3719352;79;44190;-22
2021/04/30 18:55:21;;;;;;;17.32;11.95;;;;;;;8.20;100.00;97892.45;3714707;79;44034;-21
2021/04/30 19:00:29;;;;;;;16.00;11.80;;;;;;;8.22;100.00;97908.73;3715383;79;44094;-21
2021/04/30 19:05:35;;;;;;;17.77;11.85;;;;;;;8.17;100.00;97915.91;3719602;79;43717;-21
2021/04/30 19:10:41;;;;;;;16.02;12.00;;;;;;;8.16;100.00;97922.28;3727714;77;44066;-21
2021/04/30 19:15:48;;;;;;;16.00;12.07;;;;;;;8.13;100.00;97935.17;3720137;79;43281;-21
2021/04/30 19:20:55;;;;;;;17.07;12.37;;;;;;;8.11;100.00;97930.46;3726982;79;43236;-21
2021/04/30 19:26:01;;;;;;;20.17;13.53;;;;;;;8.10;100.00;97933.66;3705803;79;43710;-21
2021/04/30 19:31:07;;;;;;;17.10;12.50;;;;;;;8.08;100.00;97938.81;3735120;79;44074;-21
2021/04/30 19:36:13;;;;;;;18.05;12.82;;;;;;;8.10;100.00;97944.87;3716849;79;43569;-21
2021/04/30 19:41:20;;;;;;;16.37;12.30;;;;;;;8.09;100.00;97950.75;3708737;79;77372;-21
2021/04/30 19:46:25;;;;;;;17.30;12.85;;;;;;;8.07;100.00;97939.33;3703123;79;43770;-22
2021/04/30 19:51:32;;;;;;;16.23;12.17;;;;;;;8.08;100.00;97957.59;3707773;79;43699;-23
2021/04/30 19:56:38;;;;;;;19.05;13.78;;;;;;;8.02;100.00;97953.22;3728650;79;44073;-20
2021/04/30 20:01:47;;;;;;;20.48;13.68;;;;;;;8.00;100.00;97961.05;3706447;79;43712;-23
2021/04/30 20:06:54;;;;;;;19.10;14.43;;;;;;;7.99;100.00;97957.55;3723042;78;44061;-21
2021/04/30 20:12:00;;;;;;;19.32;14.33;;;;;;;7.99;100.00;97957.55;3715760;79;44051;-21
2021/04/30 20:17:08;;;;;;;18.50;13.90;;;;;;;7.96;100.00;97959.19;3682552;79;43694;-22
2021/04/30 20:22:14;;;;;;;17.20;12.80;;;;;;;7.93;100.00;97950.14;3698836;79;43701;-22
2021/04/30 20:27:21;;;;;;;18.48;13.50;;;;;;;7.86;100.00;97955.28;3669374;79;43354;-21
2021/04/30 20:32:27;;;;;;;19.50;14.23;;;;;;;7.88;100.00;97969.03;3687040;79;43430;-21
2021/04/30 20:37:33;;;;;;;17.65;12.95;;;;;;;7.86;100.00;97976.73;3683100;79;44071;-22
2021/04/30 20:42:40;;;;;;;20.85;14.58;;;;;;;7.82;100.00;97979.38;3684874;78;44105;-22
2021/04/30 20:47:46;;;;;;;18.50;14.00;;;;;;;7.77;100.00;97987.53;3679430;79;43466;-21
2021/04/30 20:52:52;;;;;;;21.12;15.32;;;;;;;7.74;100.00;97983.81;3688744;78;44664;-22
2021/04/30 20:57:58;;;;;;;22.60;15.75;;;;;;;7.74;100.00;97979.79;3678390;79;43983;-21
2021/04/30 21:03:06;;;;;;;21.02;14.95;;;;;;;7.70;100.00;97974.73;3674245;79;44006;-25
2021/04/30 21:08:13;;;;;;;20.85;14.75;;;;;;;7.69;100.00;97977.09;3682754;79;42956;-26
2021/04/30 21:18:43;;;;;;;19.92;13.83;;;;;;;7.81;100.00;97964.28;3673252;79;43307;-25
2021/04/30 21:23:49;;;;;;;19.07;14.18;;;;;;;7.80;100.00;97968.47;3677831;79;44087;-25
2021/04/30 21:28:55;;;;;;;21.37;14.73;;;;;;;7.86;100.00;97974.53;3626940;81;44243;-25
2021/04/30 21:34:02;;;;;;;25.95;15.03;;;;;;;7.91;100.00;97966.87;3679172;79;43693;-25
2021/04/30 21:39:09;;;;;;;22.60;14.83;;;;;;;7.86;100.00;97967.83;3653728;79;43344;-25
2021/04/30 21:44:15;;;;;;;20.83;15.30;;;;;;;7.85;100.00;97964.80;3667195;79;44150;-25
2021/04/30 21:49:21;;;;;;;22.02;15.38;;;;;;;7.84;100.00;97966.66;3685177;79;44467;-25
2021/04/30 21:54:27;;;;;;;23.87;16.57;;;;;;;7.84;100.00;97963.11;3674121;78;44126;-25
2021/04/30 21:59:32;;;;;;;22.07;15.30;;;;;;;7.81;100.00;97970.98;3686355;79;42897;-25
2021/04/30 22:04:39;;;;;;;23.60;15.72;;;;;;;7.75;100.00;97975.64;3682933;79;43354;-25
2021/04/30 22:09:45;;;;;;;23.02;15.15;;;;;;;7.67;100.00;97989.81;3686936;79;44035;-25
2021/04/30 22:14:54;;;;;;;24.82;17.10;;;;;;;7.71;100.00;98015.30;3680353;79;43422;-25
2021/04/30 22:19:59;;;;;;;22.22;15.38;;;;;;;7.74;100.00;98009.29;3682496;79;43312;-25
2021/04/30 22:25:06;;;;;;;23.18;14.68;;;;;;;7.74;100.00;97999.42;3672993;79;43084;-25
2021/04/30 22:30:15;;;;;;;22.75;16.15;;;;;;;7.71;100.00;98005.91;3683539;79;43975;-25
2021/04/30 22:35:22;;;;;;;24.50;15.53;;;;;;;7.70;100.00;97999.38;3678925;79;44015;-25
2021/04/30 22:40:29;;;;;;;24.47;16.45;;;;;;;7.61;100.00;97999.78;3688517;79;43445;-25
2021/04/30 22:45:35;;;;;;;24.72;17.20;;;;;;;7.62;100.00;97999.30;3686239;79;43668;-25
2021/04/30 22:50:44;;;;;;;23.73;16.93;;;;;;;7.63;100.00;98000.99;3685921;79;43435;-25
2021/04/30 22:55:50;;;;;;;26.37;18.40;;;;;;;7.62;100.00;98007.34;3678446;79;43304;-25
2021/04/30 23:00:56;;;;;;;25.17;16.87;;;;;;;7.59;100.00;98000.94;3689524;79;44092;-25
2021/04/30 23:06:02;;;;;;;25.10;17.65;;;;;;;7.59;100.00;97991.05;3688478;79;44061;-25
2021/04/30 23:11:08;;;;;;;24.67;16.50;;;;;;;7.58;100.00;97993.41;3685302;79;43697;-25
2021/04/30 23:16:13;;;;;;;25.30;17.25;;;;;;;7.55;100.00;98005.77;3703056;78;43273;-25
2021/04/30 23:21:20;;;;;;;23.10;15.88;;;;;;;7.59;100.00;98015.69;3718608;79;44109;-25
2021/04/30 23:26:26;;;;;;;25.00;17.48;;;;;;;7.59;100.00;98011.16;3707552;79;43712;-25
2021/04/30 23:31:31;;;;;;;27.50;18.12;;;;;;;7.58;100.00;98013.52;3688655;79;44050;-25
2021/04/30 23:36:38;;;;;;;25.08;17.52;;;;;;;7.58;100.00;98017.54;3705087;79;43380;-25
2021/04/30 23:41:44;;;;;;;26.95;18.52;;;;;;;7.52;100.00;98023.02;3707950;79;43680;-25